Edson, Wisconsin
Current Conditions -  °F | °C
As of 9:56 PM on Wednesday 28 Jan 2015 (Local Time) from KEAU Reporting Station
Overcast Overcast  
Wind Chill: 29°   Ceiling: 1800
Heat Index: 29°   Visibility: 8mi
Dew Point: 23°   Wind: 0mph
Humidity: 78%   Direction: NA
Pressure: 29.81"   Gusts: NA
Location:  44.9343°N, 91.0261°W
Report Text: KEAU 290356Z AUTO 00000KT 8SM OVC018 M02/M05 A2981 RMK AO2 SLP109 T10171050
Loading
Personal Weather Stations






























Interactive Weather Map New forecast layout! Learn more

10-Day Weather Forecast

Advertisements
Track Severe Weather on mobile